Oleg-N

Developers
  • Content count

    633
  • Joined

  • Last visited

Community Reputation

418 Отличная

About Oleg-N

  • Rank
    Профи
  • Birthday 05/01/79

Дополнительная информация

  • Место в рейтинге
    348

Profile Information

  • Gender
    Male
  • Location
    UUEE

Recent Profile Visitors

3733 profile views
  1. Пасиб! Я тормознул - там всё нормально с компонентами )) Уже поправил сообщение )
  2. Во народ.... Ну, так проявите свою гражданскую позицию в благодарность за то, что Jeppesen позволяет вам комфортно чувствовать себя в мире виртуальной авиации! Напишите письмо: "Здравствуй, дорогая Jeppesen! Пишу тебе из Простоквашино. Я любитель авиации (и такой вот молодец) и нашёл ошибку в ваших схемах. А именно: там-то и так-то. Спасибо вам за то, что вы есть!" Я в АИП РФ несколько раз так посылал письма с найденными ошибками. Так хоть какая-то от меня (или от сима) польза в реальности )) Таня, с Новым Годом! Счастья тебе и множества радостных моментов в новом году! P.S. А! Не, там всё нормально с компонентами )))) Разобрался )
  3. ULLI 111530Z 29003MPS 9999 SCT008 OVC022 M01/M02 Q1004 R88/290050 NOSIG UUDD 111530Z 14004MPS 8000 -DZ OVC005 01/M00 Q1005 R88/290095 NOSIG UUEE 111530Z 14004MPS 9999 OVC008 01/00 Q1005 R06L/290145 R06R/290051 NOSIG UUWW 111530Z 13003MPS 2500 -SHRASN BKN003 BKN020CB 01/M00 Q1004 R06/510245 TEMPO 22008MPS 0700 +SHSN BKN002 BKN015CB Вы где-нибудь видите QFE? Разницы нет по портам, правда? Однако, в Пулково всё по-человечески, а в МВЗ до сих пор QFEчат. ))) Да что там говорить?! Виртуально МВЗ так же QFEчит до сих пор )) Ладно, там упоротые, но хотя бы виртуально можно показать пример, что летать по футам и QNH намного проще и удобней, отменив QFE и метры?
  4. Баннер классный! Забрал в коллекцию )
  5. У меня FSX. Все ссылки в профиле. Зимой на севере вылетать лучше затемно к рассвету ) Зима там с октября по май.
  6. Там ВПП без освещения. Я в своей сборке удалил все фонарики границы ВПП. 99% туда летает ЧукотАвиа. Все рейсы в светлое время суток. P.S. Всегда полный бак заливаю, летя в Бухту Провидения, чтоб обратно до Анадыря долететь, если что, или на Залив Креста или Лаврентия уйти. Это просто сим такой - динамика слабая ) В реальности с таким попутным приземлишься навсегда )) Зачем убиваться в горах (там, к тому же, есть такие памятники), когда у тебя оба захода с моря? Есть схема круга (посмотрите) - там всё просто. Единственное - снизиться по морю до 500 метров и войти в круг для нужной полосы. Наверно, потому мне там нравится )) Там много таких интересных площадок ) P.P.S. И да, сорри, за затянувшийся офтоп. По теме: Рад, что разум восторжествовал и METAR вернули.
  7. Да, в Провидения только ОПРС. Только непонятно, зачем там такие круголя по схеме наворачивать, когда заходить намного проще можно. Я от GIRLO иду курсом 95 со снижением, а потом на радиале (в зависимости от рабочей ВПП) вхожу в круг на посадку.
  8. o2qmg.jpg

    Трафик Аэрофлота (бета-версия) для FSX

    Создан на основе анализа 2800 интернет-страниц с расписанием выполненных и планируемых рейсов авиакомпании.

    Актуальность: апрель-май 2017.

    J7Mki.jpg

     

  9. Виктору Сошникову (Извиняюсь, не знаю, под каким ником на форуме) Добрый вечер, Виктор. Я немного неправильно сказал, по привычке назвав "Москва-Карго" аэропортом Москва (АМ). Уже давно, конечно же, не "Аэропорт-Москва", а "Москва-Карго". Схематично они располагаются здесь (разделю их гугловским скрином): Стоянки В65-В61 Шереметьево-1 Шереметьево-Карго в районе перрона F стоянок 81C-82C C уважением, Олег. RGU-261
  10. Кошмар. Такой хаос в мультиплеере отбивает всё желание к нему подключаться... Это World Truck сервер, правильно понимаю?
  11. Исправил ссылку. Попробуйте ещё раз.
  12. Не могу проголосовать, потому как не хватает пункта "ни в одном". Раньше летал с FSP (до этого пробовал FSA и VirtAirlines), но даже он с максимальными настройками реализма опротивел своей примитивностью. Вообще, осознаёшь насколько примитивны все экономические симуляторы для сима, когда выставляешь макс реал, где доход без множителей. В проекте свой, но когда реализуется не известно... Потому лично для меня этот вопрос крайне актуален, ибо теряется вообще весь интерес к полётам. Я могу летать хоть по афкадам, но чтоб экономика была - это главным считаю.
  13. Спасибо огромнейшее! Принципе есть в АИПе, хоть и старый (10-го года). Главное, Сан Томе есть. Спасибо!
  14. Скиньте FPST и FPPR пожалуйста, если есть.
  15. Интересно, какие ощущения, когда, проходя линию смены дат, из настоящего попадаешь в будущее? И наоборот.